Aniak Airport
PANI : rendu visible

Aérodrome :











RETROUVEZ-NOUS SUR...

 
LOGIN :

S'inscrire | Disclaimer

   EN    FR    IT 

 









Légende :    VFR   VFR Marginal   IFR   IFR Intensif   IFR Très Intensif
Visi : 
Plafond : 
>= 8 km
>= 3000ft
5 à 8 km
1000 à 3000 ft
1500m à 5 km
500 à 1000 ft
800 à 1500m
200 à 500 ft
< 800m
< 200 ft
Symboles :   Orages  Brouillard  Fortes neiges  Fortes précipitations  Vent > 20 kt






- Altitude de l'aérodrome : 88 ft
- Code IATA : ANI


PANI - Aniak

DERNIER METAR :
  • 061156Z AUTO 24003KT 10SM CLR 06/05 A2999 RMK AO2 SLP156 T00610050 10117 20061 58002

METARs EXPIRÉS :
  • 061056Z AUTO 28004KT 10SM SCT080 BKN110 07/05 A2999 RMK AO2 SLP157 T00720050
  • 060956Z AUTO 00000KT 10SM BKN070 OVC090 08/05 A2999 RMK AO2 SLP158 T00780050

TAF N/A
FIR PAZA / Amérique du Nord



MET'MAP, la Météo Aéronautique d'un coup d'oeil ! - Copyright ORBIFLY Décembre 2007 - Disclaimer

ORBIFLY MET'MAP TEAM :

Programmation & Développement : Alexandra Zaïnal
Sur une idée originale de : Baudouin d'Aumeries
Assistance à la programmation : Marc-Olivier Méhu
Soutien technique & logistique : Manuel Goepfert

Contact : metmap@orbifly.com




SOURCES & CREDITS :

   NOAA       Earth
Advisory